Stolt Dipper — ZCMY3 — position and weather

sailwx.info

Track history (hours):
 
Tides and Currents Weather Stations Pressure Air Temp Water Temp Dewpoint Dewpoint Depression Visibility Wind Speed Wind Dir Waves Ship Positions

Stolt Dipper

Last reported at 2015-Aug-02 15:31 UTC. Time now 2015-Aug-02 16:28 UTC.
Position N 53°25' W 003°03'.

Length 96 m; draft 6.4 m.

Type: Ship. MMSI: 319036000.

Date/timePositionNaut miles runAvg speedWind from/ knotsBaromVisibWave heightAir tempDewpointWater temp
2015-Aug-02 15:31N 53°25' W 003°03'0 0.0
2015-Aug-02 14:31N 53°25' W 003°03'0 0.0
2015-Aug-02 13:31N 53°25' W 003°03'0 0.0
2015-Aug-02 12:28N 53°25' W 003°03'0 0.0
2015-Aug-02 11:31N 53°25' W 003°03'0 0.0
2015-Aug-02 10:28N 53°25' W 003°03'0 0.0
2015-Aug-02 09:31N 53°25' W 003°03'0 0.0
2015-Aug-02 08:31N 53°25' W 003°03'0 0.0
2015-Aug-02 07:31N 53°25' W 003°03'0 0.0
2015-Aug-02 06:31N 53°25' W 003°03'0 0.0
2015-Aug-02 05:28N 53°25' W 003°03'0 0.0
2015-Aug-02 04:31N 53°25' W 003°03'0 0.0
2015-Aug-02 03:31N 53°25' W 003°03'0 0.0
2015-Aug-02 02:28N 53°25' W 003°03'0 0.0
2015-Aug-02 01:28N 53°25' W 003°03'1 1.2
2015-Aug-02 00:33N 53°24' W 003°01'0 0.1
2015-Aug-01 23:33N 53°24' W 003°01'1 1.1
2015-Aug-01 22:33N 53°23' W 003°00'5 5.0
2015-Aug-01 21:33N 53°19' W 002°56'2 2.3
2015-Aug-01 20:33N 53°17' W 002°53'5 5.1
2015-Aug-01 19:33N 53°19' W 002°46'1 0.6
2015-Aug-01 18:18N 53°20' W 002°46'0 0.0
2015-Aug-01 17:33N 53°20' W 002°46'0 0.0
2015-Aug-01 16:30N 53°20' W 002°46'0 0.0
2015-Aug-01 15:33N 53°20' W 002°46'0 0.0
2015-Aug-01 14:24N 53°20' W 002°46'0 0.0
2015-Aug-01 13:21N 53°20' W 002°46'0 0.0
2015-Aug-01 12:30N 53°20' W 002°46'0 0.0
2015-Aug-01 11:30N 53°20' W 002°46'0 0.0
2015-Aug-01 10:30N 53°20' W 002°46'0 0.0
2015-Aug-01 09:30N 53°20' W 002°46'0 0.0
2015-Aug-01 08:21N 53°20' W 002°46'0 0.0
2015-Aug-01 07:30N 53°20' W 002°46'0 0.0
2015-Aug-01 06:30N 53°20' W 002°46'0 0.0
2015-Aug-01 05:30N 53°20' W 002°46'0 0.0
2015-Aug-01 04:30N 53°20' W 002°46'0 0.0
2015-Aug-01 03:33N 53°20' W 002°46'2 2.4
2015-Aug-01 02:33N 53°18' W 002°47'6 5.7
2015-Aug-01 01:33N 53°19' W 002°56'2 2.0
2015-Aug-01 00:33N 53°21' W 002°58'5 4.8
2015-Jul-31 23:34N 53°25' W 003°01'9 8.5
2015-Jul-31 22:33N 53°32' W 003°10'7 6.6
2015-Jul-31 21:33N 53°31' W 003°21'1413.8
2015-Jul-31 20:33N 53°31' W 003°44'1410.8
2015-Jul-31 19:16N 53°31' W 004°07'261 8.0
2015-Jul-30 10:33N 49°44' W 000°40'1313.3
2015-Jul-30 09:33N 49°36' W 000°24'1312.9
2015-Jul-30 08:33N 49°30' W 000°07'1212.3
2015-Jul-30 07:33N 49°26' E 000°11'1110.5
2015-Jul-30 06:33N 49°28' E 000°27'3 3.4
2015-Jul-30 05:32N 49°28' E 000°33'0 0.0
2015-Jul-30 04:32N 49°28' E 000°33'0 0.0
2015-Jul-30 03:32N 49°28' E 000°33'0 0.0
2015-Jul-30 02:23N 49°28' E 000°33'0 0.0
2015-Jul-30 01:32N 49°28' E 000°33'0 0.0
2015-Jul-30 00:29N 49°28' E 000°33'0 0.0
2015-Jul-29 23:32N 49°28' E 000°33'0 0.0
2015-Jul-29 22:32N 49°28' E 000°33'0 0.0
2015-Jul-29 20:32N 49°28' E 000°33'0 0.0
2015-Jul-29 19:32N 49°28' E 000°33'0 0.1
2015-Jul-29 18:33N 49°28' E 000°32'1110.8
2015-Jul-29 17:33N 49°26' E 000°16'1312.7
2015-Jul-29 16:34N 49°28' W 000°03'2 1.5
2015-Jul-29 15:31N 49°28' W 000°05'0 0.0
2015-Jul-29 14:31N 49°28' W 000°05'0 0.0
2015-Jul-29 13:31N 49°28' W 000°05'0 0.0
2015-Jul-29 12:31N 49°28' W 000°05'0 0.0
2015-Jul-29 11:31N 49°28' W 000°05'0 0.0
2015-Jul-29 10:31N 49°28' W 000°05'0 0.0
2015-Jul-29 09:31N 49°28' W 000°05'0 0.0
2015-Jul-29 08:31N 49°28' W 000°05'0 0.0
2015-Jul-29 07:31N 49°28' W 000°05'0 0.0
2015-Jul-29 06:31N 49°28' W 000°05'0 0.0
2015-Jul-29 05:31N 49°28' W 000°05'0 0.0
2015-Jul-29 04:31N 49°28' W 000°05'0 0.0
2015-Jul-29 03:31N 49°28' W 000°05'0 0.0
2015-Jul-29 02:31N 49°28' W 000°05'1 1.5
2015-Jul-29 01:34N 49°28' W 000°07'1313.1
2015-Jul-29 00:33N 49°35' W 000°24'1312.3
2015-Jul-28 23:31N 49°43' W 000°40'4 3.5
2015-Jul-28 22:23N 49°45' W 000°45'1113.5
2015-Jul-28 21:33N 49°39' W 000°31'1312.8
2015-Jul-28 20:33N 49°31' W 000°15'1212.2
2015-Jul-28 19:33N 49°27' E 000°02'1312.7
2015-Jul-28 18:33N 49°26' E 000°22'8 7.6
2015-Jul-28 17:33N 49°27' E 000°34'12 0.5
2015-Jul-27 17:26N 49°24' E 000°52'9 7.8
2015-Jul-27 16:15N 49°29' E 000°40'6 8.1
2015-Jul-27 15:34N 49°29' E 000°31'1312.7
2015-Jul-27 14:33N 49°26' E 000°12'1211.9
2015-Jul-27 13:33N 49°29' W 000°05'1010.1
2015-Jul-27 12:33N 49°31' W 000°20'5 5.4
2015-Jul-27 11:33N 49°30' W 000°12'8 8.3
2015-Jul-27 10:33N 49°39' W 000°10'10 9.4
2015-Jul-27 09:31N 49°48' W 000°08'54 9.0
2015-Jul-27 03:32N 50°34' E 000°36'8 8.2
2015-Jul-27 02:33N 50°39' E 000°46'9 8.9
2015-Jul-27 01:33N 50°44' E 000°57'2010.0
2015-Jul-26 23:33N 50°57' E 001°21'9 9.3
2015-Jul-26 22:33N 51°04' E 001°30'8 7.9
2015-Jul-26 21:33N 51°10' E 001°40'8 8.3
2015-Jul-26 20:34N 51°16' E 001°48'9 9.1
2015-Jul-26 19:33N 51°24' E 001°56'1210.2
2015-Jul-26 18:24N 51°33' E 002°08'11811.5
2015-Jul-26 08:09N 53°04' E 004°10'4612.1
2015-Jul-26 04:19N 53°45' E 004°45'1311.4
2015-Jul-26 03:09N 53°58' E 004°53'711.2
2015-Jul-26 02:34N 54°04' E 004°58'1111.2
2015-Jul-26 01:33N 54°14' E 005°06'9411.7
2015-Jul-25 17:33N 55°36' E 006°24'1313.1
2015-Jul-25 16:32N 55°48' E 006°36'14512.9
2015-Jul-25 05:16N 57°39' E 009°26'912.4
2015-Jul-25 04:33N 57°43' E 009°40'1212.3
2015-Jul-25 03:33N 57°50' E 009°60'1211.9
2015-Jul-25 02:33N 57°51' E 010°22'1111.3
2015-Jul-25 01:33N 57°51' E 010°43'1212.2
2015-Jul-25 00:33N 57°42' E 010°60'1212.3
2015-Jul-24 23:33N 57°34' E 011°17'1212.3
2015-Jul-24 22:34N 57°25' E 011°32'6812.9
2015-Jul-24 17:16N 56°19' E 012°05'912.4
2015-Jul-24 16:34N 56°14' E 012°17'1312.7
2015-Jul-24 15:33N 56°06' E 012°35'7 6.7
2015-Jul-24 14:32N 56°01' E 012°43'0 0.0
2015-Jul-24 13:32N 56°01' E 012°43'0 0.0
2015-Jul-24 12:29N 56°01' E 012°43'0 0.0
2015-Jul-24 11:29N 56°01' E 012°43'0 0.0
2015-Jul-24 10:32N 56°01' E 012°43'0 0.0
2015-Jul-24 09:33N 56°01' E 012°43'0 0.0
2015-Jul-24 08:33N 56°01' E 012°43'0 0.0
2015-Jul-24 07:30N 56°01' E 012°43'0 0.0
2015-Jul-24 06:30N 56°01' E 012°43'0 0.0
2015-Jul-24 05:33N 56°01' E 012°43'0 0.0
2015-Jul-24 04:33N 56°01' E 012°43'0 0.0
2015-Jul-24 03:33N 56°01' E 012°43'0 0.0
2015-Jul-24 02:33N 56°01' E 012°43'0 0.0
2015-Jul-24 01:33N 56°01' E 012°43'0 0.1
2015-Jul-24 00:33N 56°00' E 012°43'2 2.2
2015-Jul-23 23:33N 55°58' E 012°44'0 0.0
2015-Jul-23 22:33N 55°58' E 012°44'0 0.0
2015-Jul-23 21:33N 55°58' E 012°44'0 0.0
2015-Jul-23 20:33N 55°58' E 012°44'0 0.0
2015-Jul-23 19:31N 55°58' E 012°44'0 0.0
2015-Jul-23 18:30N 55°58' E 012°44'0 0.0
2015-Jul-23 17:33N 55°58' E 012°44'0 0.0
2015-Jul-23 16:33N 55°58' E 012°44'0 0.0
2015-Jul-23 15:33N 55°58' E 012°44'  
Track history (hours):
 
Tides and Currents Weather Stations Pressure Air Temp Water Temp Dewpoint Dewpoint Depression Visibility Wind Speed Wind Dir Waves Ship Positions

Stolt Dipper

Last reported at 2015-Aug-02 15:31 UTC. Time now 2015-Aug-02 16:28 UTC.
Position N 53°25' W 003°03'.

Length 96 m; draft 6.4 m.

Type: Ship. MMSI: 319036000.

Date/timePositionNaut miles runAvg speedWind from/ knotsBaromVisibWave heightAir tempDewpointWater temp
2015-Aug-02 15:31N 53°25' W 003°03'0 0.0
2015-Aug-02 14:31N 53°25' W 003°03'0 0.0
2015-Aug-02 13:31N 53°25' W 003°03'0 0.0
2015-Aug-02 12:28N 53°25' W 003°03'0 0.0
2015-Aug-02 11:31N 53°25' W 003°03'0 0.0
2015-Aug-02 10:28N 53°25' W 003°03'0 0.0
2015-Aug-02 09:31N 53°25' W 003°03'0 0.0
2015-Aug-02 08:31N 53°25' W 003°03'0 0.0
2015-Aug-02 07:31N 53°25' W 003°03'0 0.0
2015-Aug-02 06:31N 53°25' W 003°03'0 0.0
2015-Aug-02 05:28N 53°25' W 003°03'0 0.0
2015-Aug-02 04:31N 53°25' W 003°03'0 0.0
2015-Aug-02 03:31N 53°25' W 003°03'0 0.0
2015-Aug-02 02:28N 53°25' W 003°03'0 0.0
2015-Aug-02 01:28N 53°25' W 003°03'1 1.2
2015-Aug-02 00:33N 53°24' W 003°01'0 0.1
2015-Aug-01 23:33N 53°24' W 003°01'1 1.1
2015-Aug-01 22:33N 53°23' W 003°00'5 5.0
2015-Aug-01 21:33N 53°19' W 002°56'2 2.3
2015-Aug-01 20:33N 53°17' W 002°53'5 5.1
2015-Aug-01 19:33N 53°19' W 002°46'1 0.6
2015-Aug-01 18:18N 53°20' W 002°46'0 0.0
2015-Aug-01 17:33N 53°20' W 002°46'0 0.0
2015-Aug-01 16:30N 53°20' W 002°46'0 0.0
2015-Aug-01 15:33N 53°20' W 002°46'0 0.0
2015-Aug-01 14:24N 53°20' W 002°46'0 0.0
2015-Aug-01 13:21N 53°20' W 002°46'0 0.0
2015-Aug-01 12:30N 53°20' W 002°46'0 0.0
2015-Aug-01 11:30N 53°20' W 002°46'0 0.0
2015-Aug-01 10:30N 53°20' W 002°46'0 0.0
2015-Aug-01 09:30N 53°20' W 002°46'0 0.0
2015-Aug-01 08:21N 53°20' W 002°46'0 0.0
2015-Aug-01 07:30N 53°20' W 002°46'0 0.0
2015-Aug-01 06:30N 53°20' W 002°46'0 0.0
2015-Aug-01 05:30N 53°20' W 002°46'0 0.0
2015-Aug-01 04:30N 53°20' W 002°46'0 0.0
2015-Aug-01 03:33N 53°20' W 002°46'2 2.4
2015-Aug-01 02:33N 53°18' W 002°47'6 5.7
2015-Aug-01 01:33N 53°19' W 002°56'2 2.0
2015-Aug-01 00:33N 53°21' W 002°58'5 4.8
2015-Jul-31 23:34N 53°25' W 003°01'9 8.5
2015-Jul-31 22:33N 53°32' W 003°10'7 6.6
2015-Jul-31 21:33N 53°31' W 003°21'1413.8
2015-Jul-31 20:33N 53°31' W 003°44'1410.8
2015-Jul-31 19:16N 53°31' W 004°07'261 8.0
2015-Jul-30 10:33N 49°44' W 000°40'1313.3
2015-Jul-30 09:33N 49°36' W 000°24'1312.9
2015-Jul-30 08:33N 49°30' W 000°07'1212.3
2015-Jul-30 07:33N 49°26' E 000°11'1110.5
2015-Jul-30 06:33N 49°28' E 000°27'3 3.4
2015-Jul-30 05:32N 49°28' E 000°33'0 0.0
2015-Jul-30 04:32N 49°28' E 000°33'0 0.0
2015-Jul-30 03:32N 49°28' E 000°33'0 0.0
2015-Jul-30 02:23N 49°28' E 000°33'0 0.0
2015-Jul-30 01:32N 49°28' E 000°33'0 0.0
2015-Jul-30 00:29N 49°28' E 000°33'0 0.0
2015-Jul-29 23:32N 49°28' E 000°33'0 0.0
2015-Jul-29 22:32N 49°28' E 000°33'0 0.0
2015-Jul-29 20:32N 49°28' E 000°33'0 0.0
2015-Jul-29 19:32N 49°28' E 000°33'0 0.1
2015-Jul-29 18:33N 49°28' E 000°32'1110.8
2015-Jul-29 17:33N 49°26' E 000°16'1312.7
2015-Jul-29 16:34N 49°28' W 000°03'2 1.5
2015-Jul-29 15:31N 49°28' W 000°05'0 0.0
2015-Jul-29 14:31N 49°28' W 000°05'0 0.0
2015-Jul-29 13:31N 49°28' W 000°05'0 0.0
2015-Jul-29 12:31N 49°28' W 000°05'0 0.0
2015-Jul-29 11:31N 49°28' W 000°05'0 0.0
2015-Jul-29 10:31N 49°28' W 000°05'0 0.0
2015-Jul-29 09:31N 49°28' W 000°05'0 0.0
2015-Jul-29 08:31N 49°28' W 000°05'0 0.0
2015-Jul-29 07:31N 49°28' W 000°05'0 0.0
2015-Jul-29 06:31N 49°28' W 000°05'0 0.0
2015-Jul-29 05:31N 49°28' W 000°05'0 0.0
2015-Jul-29 04:31N 49°28' W 000°05'0 0.0
2015-Jul-29 03:31N 49°28' W 000°05'0 0.0
2015-Jul-29 02:31N 49°28' W 000°05'1 1.5
2015-Jul-29 01:34N 49°28' W 000°07'1313.1
2015-Jul-29 00:33N 49°35' W 000°24'1312.3
2015-Jul-28 23:31N 49°43' W 000°40'4 3.5
2015-Jul-28 22:23N 49°45' W 000°45'1113.5
2015-Jul-28 21:33N 49°39' W 000°31'1312.8
2015-Jul-28 20:33N 49°31' W 000°15'1212.2
2015-Jul-28 19:33N 49°27' E 000°02'1312.7
2015-Jul-28 18:33N 49°26' E 000°22'8 7.6
2015-Jul-28 17:33N 49°27' E 000°34'12 0.5
2015-Jul-27 17:26N 49°24' E 000°52'9 7.8
2015-Jul-27 16:15N 49°29' E 000°40'6 8.1
2015-Jul-27 15:34N 49°29' E 000°31'1312.7
2015-Jul-27 14:33N 49°26' E 000°12'1211.9
2015-Jul-27 13:33N 49°29' W 000°05'1010.1
2015-Jul-27 12:33N 49°31' W 000°20'5 5.4
2015-Jul-27 11:33N 49°30' W 000°12'8 8.3
2015-Jul-27 10:33N 49°39' W 000°10'10 9.4
2015-Jul-27 09:31N 49°48' W 000°08'54 9.0
2015-Jul-27 03:32N 50°34' E 000°36'8 8.2
2015-Jul-27 02:33N 50°39' E 000°46'9 8.9
2015-Jul-27 01:33N 50°44' E 000°57'2010.0
2015-Jul-26 23:33N 50°57' E 001°21'9 9.3
2015-Jul-26 22:33N 51°04' E 001°30'8 7.9
2015-Jul-26 21:33N 51°10' E 001°40'8 8.3
2015-Jul-26 20:34N 51°16' E 001°48'9 9.1
2015-Jul-26 19:33N 51°24' E 001°56'1210.2
2015-Jul-26 18:24N 51°33' E 002°08'11811.5
2015-Jul-26 08:09N 53°04' E 004°10'4612.1
2015-Jul-26 04:19N 53°45' E 004°45'1311.4
2015-Jul-26 03:09N 53°58' E 004°53'711.2
2015-Jul-26 02:34N 54°04' E 004°58'1111.2
2015-Jul-26 01:33N 54°14' E 005°06'9411.7
2015-Jul-25 17:33N 55°36' E 006°24'1313.1
2015-Jul-25 16:32N 55°48' E 006°36'14512.9
2015-Jul-25 05:16N 57°39' E 009°26'912.4
2015-Jul-25 04:33N 57°43' E 009°40'1212.3
2015-Jul-25 03:33N 57°50' E 009°60'1211.9
2015-Jul-25 02:33N 57°51' E 010°22'1111.3
2015-Jul-25 01:33N 57°51' E 010°43'1212.2
2015-Jul-25 00:33N 57°42' E 010°60'1212.3
2015-Jul-24 23:33N 57°34' E 011°17'1212.3
2015-Jul-24 22:34N 57°25' E 011°32'6812.9
2015-Jul-24 17:16N 56°19' E 012°05'912.4
2015-Jul-24 16:34N 56°14' E 012°17'1312.7
2015-Jul-24 15:33N 56°06' E 012°35'7 6.7
2015-Jul-24 14:32N 56°01' E 012°43'0 0.0
2015-Jul-24 13:32N 56°01' E 012°43'0 0.0
2015-Jul-24 12:29N 56°01' E 012°43'0 0.0
2015-Jul-24 11:29N 56°01' E 012°43'0 0.0
2015-Jul-24 10:32N 56°01' E 012°43'0 0.0
2015-Jul-24 09:33N 56°01' E 012°43'0 0.0
2015-Jul-24 08:33N 56°01' E 012°43'0 0.0
2015-Jul-24 07:30N 56°01' E 012°43'0 0.0
2015-Jul-24 06:30N 56°01' E 012°43'0 0.0
2015-Jul-24 05:33N 56°01' E 012°43'0 0.0
2015-Jul-24 04:33N 56°01' E 012°43'0 0.0
2015-Jul-24 03:33N 56°01' E 012°43'0 0.0
2015-Jul-24 02:33N 56°01' E 012°43'0 0.0
2015-Jul-24 01:33N 56°01' E 012°43'0 0.1
2015-Jul-24 00:33N 56°00' E 012°43'2 2.2
2015-Jul-23 23:33N 55°58' E 012°44'0 0.0
2015-Jul-23 22:33N 55°58' E 012°44'0 0.0
2015-Jul-23 21:33N 55°58' E 012°44'0 0.0
2015-Jul-23 20:33N 55°58' E 012°44'0 0.0
2015-Jul-23 19:31N 55°58' E 012°44'0 0.0
2015-Jul-23 18:30N 55°58' E 012°44'0 0.0
2015-Jul-23 17:33N 55°58' E 012°44'0 0.0
2015-Jul-23 16:33N 55°58' E 012°44'0 0.0
2015-Jul-23 15:33N 55°58' E 012°44'  

Dump ship's entire track history